createdAt,value
2022-12-13T00:00:55.534Z,16.95
2022-12-13T00:03:22.000Z,16.40
2022-12-13T00:05:48.454Z,16.30
2022-12-13T00:08:14.975Z,17.38
2022-12-13T00:10:41.524Z,16.40
2022-12-13T00:13:08.043Z,15.40
2022-12-13T00:15:34.536Z,14.95
2022-12-13T00:18:01.088Z,16.27
2022-12-13T00:20:27.625Z,15.75
2022-12-13T00:22:54.141Z,16.33
2022-12-13T00:25:21.377Z,15.90
2022-12-13T00:27:47.920Z,16.85
2022-12-13T00:30:14.466Z,20.40
2022-12-13T00:32:40.983Z,17.58
2022-12-13T00:35:07.752Z,16.77
2022-12-13T00:37:34.207Z,15.07
2022-12-13T00:40:00.680Z,16.48
2022-12-13T00:42:27.139Z,15.52
2022-12-13T00:44:53.839Z,14.48
2022-12-13T00:47:22.155Z,14.80
2022-12-13T00:49:48.664Z,14.95
2022-12-13T00:52:15.328Z,14.93
2022-12-13T00:54:41.889Z,15.25
2022-12-13T00:57:08.356Z,15.70
2022-12-13T00:59:34.945Z,15.27
2022-12-13T01:02:01.429Z,14.52
2022-12-13T01:04:27.967Z,14.65
2022-12-13T01:06:55.145Z,13.25
2022-12-13T01:09:30.906Z,14.02
2022-12-13T01:11:59.392Z,14.27
2022-12-13T01:14:26.783Z,13.20
2022-12-13T01:16:55.736Z,14.52
2022-12-13T01:19:23.934Z,14.18
2022-12-13T01:21:54.378Z,15.20
2022-12-13T01:24:22.862Z,14.68
2022-12-13T01:26:49.333Z,14.93
2022-12-13T01:29:15.857Z,15.77
2022-12-13T01:31:42.381Z,14.25
2022-12-13T01:34:13.631Z,15.23
2022-12-13T01:36:42.381Z,14.18
2022-12-13T01:39:14.834Z,15.18
2022-12-13T01:41:42.812Z,14.40
2022-12-13T01:44:46.956Z,14.60
2022-12-13T01:47:17.528Z,15.95
2022-12-13T01:49:44.225Z,13.57
2022-12-13T01:52:13.552Z,13.95
2022-12-13T01:54:46.859Z,14.15
2022-12-13T01:57:17.753Z,15.65
2022-12-13T01:59:45.369Z,15.88
2022-12-13T02:02:13.810Z,15.55
2022-12-13T02:04:51.021Z,14.85
2022-12-13T02:07:23.449Z,14.18
2022-12-13T02:09:56.678Z,15.48
2022-12-13T02:12:30.501Z,15.95
2022-12-13T02:15:06.144Z,15.52
2022-12-13T02:17:44.526Z,15.20
2022-12-13T02:20:27.166Z,15.48
2022-12-13T02:22:59.622Z,17.10
2022-12-13T02:28:30.254Z,14.75
2022-12-13T02:31:11.541Z,16.55
2022-12-13T02:33:40.870Z,17.70
2022-12-13T02:36:36.446Z,16.92
2022-12-13T02:39:12.762Z,16.23
2022-12-13T02:41:48.463Z,16.33
2022-12-13T02:44:25.767Z,16.75
2022-12-13T02:46:56.274Z,16.08
2022-12-13T02:49:25.457Z,16.77
2022-12-13T02:51:52.831Z,16.95
2022-12-13T02:54:19.431Z,17.80
2022-12-13T02:56:59.485Z,16.00
2022-12-13T02:59:31.386Z,17.40
2022-12-13T03:02:31.269Z,17.58
2022-12-13T03:05:45.908Z,17.25
2022-12-13T03:08:31.400Z,17.30
2022-12-13T03:11:12.955Z,16.52
2022-12-13T03:13:45.033Z,17.88
2022-12-13T03:16:14.897Z,17.27
2022-12-13T03:18:51.746Z,19.85
2022-12-13T03:21:18.251Z,17.08
2022-12-13T03:23:46.682Z,16.25
2022-12-13T03:26:20.862Z,17.40
2022-12-13T03:28:47.755Z,16.65
2022-12-13T03:31:14.513Z,16.70
2022-12-13T03:33:41.039Z,17.33
2022-12-13T03:36:09.018Z,17.38
2022-12-13T03:38:36.818Z,18.98
2022-12-13T03:41:10.550Z,18.15
2022-12-13T03:43:37.583Z,18.38
2022-12-13T03:46:04.275Z,16.05
2022-12-13T03:48:30.881Z,17.98
2022-12-13T03:50:57.445Z,18.67
2022-12-13T03:53:32.779Z,16.35
2022-12-13T03:56:06.284Z,17.23
2022-12-13T03:58:36.398Z,18.05
2022-12-13T04:01:15.218Z,18.00
2022-12-13T04:03:43.842Z,18.48
2022-12-13T04:06:11.600Z,18.88
2022-12-13T04:08:39.169Z,18.90
2022-12-13T04:11:25.240Z,19.00
2022-12-13T04:13:55.351Z,17.98
2022-12-13T04:16:23.377Z,18.70
2022-12-13T04:18:50.012Z,18.00
2022-12-13T04:21:16.510Z,20.45
2022-12-13T04:23:42.989Z,17.73
2022-12-13T04:26:10.368Z,19.30
2022-12-13T04:28:36.839Z,18.85
2022-12-13T04:31:03.645Z,16.85
2022-12-13T04:33:32.571Z,19.08
2022-12-13T04:35:59.215Z,18.65
2022-12-13T04:38:25.682Z,19.42
2022-12-13T04:40:52.175Z,18.55
2022-12-13T04:43:18.627Z,18.33
2022-12-13T04:45:45.174Z,18.70
2022-12-13T04:48:11.845Z,19.20
2022-12-13T04:50:38.326Z,20.00
2022-12-13T04:53:04.844Z,19.75
2022-12-13T04:55:31.350Z,19.48
2022-12-13T04:57:57.808Z,18.73
2022-12-13T05:00:24.308Z,19.50
2022-12-13T05:02:50.937Z,18.38
2022-12-13T05:05:18.246Z,18.83
2022-12-13T05:07:45.276Z,20.17
2022-12-13T05:10:11.970Z,19.15
2022-12-13T05:12:38.853Z,19.42
2022-12-13T05:15:06.802Z,19.75
2022-12-13T05:17:34.372Z,19.85
2022-12-13T05:20:00.998Z,21.17
2022-12-13T05:22:27.522Z,20.63
2022-12-13T05:24:53.968Z,19.35
2022-12-13T05:27:24.724Z,18.55
2022-12-13T05:30:03.809Z,16.07
2022-12-13T05:32:43.919Z,19.00
2022-12-13T05:35:22.325Z,19.17
2022-12-13T05:37:55.064Z,18.77
2022-12-13T05:40:23.217Z,20.13
2022-12-13T05:42:50.030Z,22.58
2022-12-13T05:45:18.916Z,20.98
2022-12-13T05:47:46.019Z,20.27
2022-12-13T05:50:14.294Z,20.90
2022-12-13T05:52:41.970Z,19.08
2022-12-13T05:55:08.736Z,20.50
2022-12-13T05:57:35.583Z,18.60
2022-12-13T06:00:02.319Z,22.40
2022-12-13T06:02:44.318Z,20.45
2022-12-13T06:05:11.672Z,23.33
2022-12-13T06:07:38.535Z,23.55
2022-12-13T06:10:09.633Z,21.45
2022-12-13T06:12:37.863Z,20.42
2022-12-13T06:15:21.590Z,21.63
2022-12-13T06:17:49.343Z,21.65
2022-12-13T06:20:24.291Z,23.10
2022-12-13T06:22:54.396Z,22.42
2022-12-13T06:25:30.850Z,22.15
2022-12-13T06:28:01.078Z,20.45
2022-12-13T06:30:29.678Z,22.02
2022-12-13T06:32:57.173Z,19.98
2022-12-13T06:35:28.289Z,22.80
2022-12-13T06:38:00.822Z,23.73
2022-12-13T06:40:31.992Z,23.45
2022-12-13T06:42:58.530Z,22.35
2022-12-13T06:45:25.418Z,23.80
2022-12-13T06:47:52.051Z,25.08
2022-12-13T06:50:18.733Z,25.80
2022-12-13T06:52:48.059Z,22.88
2022-12-13T06:55:15.026Z,22.42
2022-12-13T06:57:50.787Z,22.75
2022-12-13T07:00:22.676Z,23.80
2022-12-13T07:02:54.852Z,24.10
2022-12-13T07:05:21.909Z,23.95
2022-12-13T07:07:48.764Z,23.60
2022-12-13T07:10:21.978Z,21.05
2022-12-13T07:12:50.065Z,21.27
2022-12-13T07:15:16.616Z,21.95
2022-12-13T07:17:43.126Z,23.80
2022-12-13T07:20:10.314Z,21.77
2022-12-13T07:22:44.946Z,22.58
2022-12-13T07:25:28.418Z,24.10
2022-12-13T07:28:05.539Z,20.88
2022-12-13T07:30:41.307Z,22.10
2022-12-13T07:33:09.279Z,23.67
2022-12-13T07:35:37.111Z,22.48
2022-12-13T07:38:10.147Z,22.90
2022-12-13T07:40:38.700Z,24.00
2022-12-13T07:43:06.114Z,24.05
2022-12-13T07:45:33.050Z,21.90
2022-12-13T07:48:04.261Z,23.92
2022-12-13T07:50:37.456Z,23.75
2022-12-13T07:53:08.559Z,24.30
2022-12-13T07:55:36.619Z,25.02
2022-12-13T07:58:08.329Z,24.98
2022-12-13T08:00:35.369Z,22.65
2022-12-13T08:03:01.946Z,24.92
2022-12-13T08:05:29.059Z,25.00
2022-12-13T08:08:07.172Z,21.38
2022-12-13T08:10:33.702Z,23.80
2022-12-13T08:13:03.073Z,24.40
2022-12-13T08:15:30.049Z,23.95
2022-12-13T08:17:57.337Z,25.33
2022-12-13T08:20:23.907Z,24.08
2022-12-13T08:23:01.622Z,26.13
2022-12-13T08:25:29.522Z,25.25
2022-12-13T08:27:56.058Z,25.90
2022-12-13T08:30:30.129Z,25.55
2022-12-13T08:32:56.660Z,24.85
2022-12-13T08:35:23.155Z,24.85
2022-12-13T08:37:49.775Z,25.42
2022-12-13T08:40:16.260Z,24.20
2022-12-13T08:42:43.683Z,23.75
2022-12-13T08:45:10.692Z,23.90
2022-12-13T08:47:41.754Z,24.05
2022-12-13T08:50:08.945Z,21.65
2022-12-13T08:52:39.280Z,23.00
2022-12-13T08:55:08.960Z,23.40
2022-12-13T08:57:36.843Z,24.67
2022-12-13T09:00:07.991Z,25.00
2022-12-13T09:02:38.383Z,25.13
2022-12-13T09:05:07.175Z,23.90
2022-12-13T09:07:35.758Z,22.80
2022-12-13T09:10:25.591Z,23.30
2022-12-13T09:12:49.764Z,24.08
2022-12-13T09:15:22.132Z,24.20
2022-12-13T09:17:52.464Z,24.15
2022-12-13T09:20:29.584Z,24.05
2022-12-13T09:23:01.729Z,22.90
2022-12-13T09:25:37.246Z,22.77
2022-12-13T09:28:07.946Z,24.10
2022-12-13T09:30:36.337Z,22.67
2022-12-13T09:33:18.329Z,24.00
2022-12-13T09:35:49.734Z,21.15
2022-12-13T09:38:16.442Z,22.00
2022-12-13T09:40:45.557Z,22.08
2022-12-13T09:43:31.649Z,21.85
2022-12-13T09:46:05.449Z,22.33
2022-12-13T09:48:50.118Z,22.35
2022-12-13T09:51:27.237Z,22.33
2022-12-13T09:53:57.254Z,21.58
2022-12-13T09:56:25.711Z,21.63
2022-12-13T09:58:56.272Z,22.85
2022-12-13T10:01:24.026Z,22.88
2022-12-13T10:03:54.007Z,22.70
2022-12-13T10:06:23.531Z,23.25
2022-12-13T10:08:57.750Z,21.55
2022-12-13T10:11:32.237Z,23.00
2022-12-13T10:14:11.189Z,22.75
2022-12-13T10:16:37.701Z,23.15
2022-12-13T10:19:28.126Z,24.42
2022-12-13T10:22:02.321Z,21.33
2022-12-13T10:24:55.535Z,21.75
2022-12-13T10:27:44.950Z,21.85
2022-12-13T10:30:15.678Z,22.15
2022-12-13T10:32:50.102Z,20.40
2022-12-13T10:35:22.210Z,20.33
2022-12-13T10:37:48.867Z,20.17
2022-12-13T10:40:31.970Z,23.10
2022-12-13T10:43:13.218Z,21.00
2022-12-13T10:45:41.525Z,20.27
2022-12-13T10:48:38.559Z,20.45
2022-12-13T10:51:09.234Z,21.55
2022-12-13T10:53:47.525Z,20.73
2022-12-13T10:56:23.219Z,22.08
2022-12-13T10:59:13.307Z,21.52
2022-12-13T11:01:41.937Z,20.35
2022-12-13T11:04:31.454Z,20.50
2022-12-13T11:07:21.957Z,20.27
2022-12-13T11:09:52.344Z,19.77
2022-12-13T11:12:40.257Z,20.65
2022-12-13T11:15:07.747Z,20.33
2022-12-13T11:17:44.483Z,20.02
2022-12-13T11:20:30.145Z,20.42
2022-12-13T11:23:02.622Z,20.90
2022-12-13T11:25:43.442Z,19.58
2022-12-13T11:28:28.571Z,18.08
2022-12-13T11:31:02.075Z,18.77
2022-12-13T11:33:48.294Z,19.77
2022-12-13T11:36:28.323Z,19.20
2022-12-13T11:39:10.020Z,19.40
2022-12-13T11:41:45.226Z,18.75
2022-12-13T11:44:27.050Z,19.42
2022-12-13T11:46:57.129Z,15.18
2022-12-13T11:49:35.724Z,18.67
2022-12-13T11:52:21.330Z,19.02
2022-12-13T11:55:16.034Z,17.98
2022-12-13T11:58:07.264Z,20.05
2022-12-13T12:00:37.080Z,18.90
2022-12-13T12:03:17.216Z,20.05
2022-12-13T12:05:56.038Z,19.67
2022-12-13T12:08:37.687Z,19.55
2022-12-13T12:11:17.374Z,20.33
2022-12-13T12:13:50.437Z,20.30
2022-12-13T12:16:38.513Z,21.40
2022-12-13T12:19:13.437Z,20.33
2022-12-13T12:22:15.512Z,20.70
2022-12-13T12:25:10.650Z,20.58
2022-12-13T12:28:04.767Z,21.20
2022-12-13T12:30:37.297Z,20.17
2022-12-13T12:33:10.003Z,21.13
2022-12-13T12:35:55.226Z,21.95
2022-12-13T12:38:36.949Z,22.73
2022-12-13T12:41:25.907Z,20.33
2022-12-13T12:44:21.659Z,19.30
2022-12-13T12:47:31.562Z,19.23
2022-12-13T12:49:44.121Z,18.15
2022-12-13T12:52:35.346Z,18.55
2022-12-13T12:55:46.477Z,19.40
2022-12-13T12:58:34.791Z,20.52
2022-12-13T13:01:19.561Z,20.55
2022-12-13T13:03:50.265Z,18.13
2022-12-13T13:06:21.855Z,19.08
2022-12-13T13:09:00.860Z,19.15
2022-12-13T13:11:43.202Z,19.33
2022-12-13T13:14:36.385Z,17.73
2022-12-13T13:17:25.650Z,19.60
2022-12-13T13:20:15.926Z,19.58
2022-12-13T13:22:44.149Z,19.35
2022-12-13T13:25:37.185Z,18.10
2022-12-13T13:28:18.269Z,20.05
2022-12-13T13:31:07.975Z,19.08
2022-12-13T13:33:49.381Z,17.70
2022-12-13T13:36:41.501Z,19.58
2022-12-13T13:39:19.850Z,19.08
2022-12-13T13:41:49.300Z,17.95
2022-12-13T13:44:46.256Z,18.33
2022-12-13T13:47:17.749Z,18.52
2022-12-13T13:50:15.490Z,18.42
2022-12-13T13:53:13.079Z,18.67
2022-12-13T13:56:22.279Z,18.95
2022-12-13T13:59:16.470Z,17.13
2022-12-13T14:02:17.128Z,19.33
2022-12-13T14:05:12.168Z,20.45
2022-12-13T14:07:56.915Z,19.70
2022-12-13T14:10:32.826Z,19.08
2022-12-13T14:13:10.223Z,17.88
2022-12-13T14:16:07.644Z,18.27
2022-12-13T14:18:51.536Z,18.20
2022-12-13T14:21:30.741Z,19.90
2022-12-13T14:24:20.988Z,21.63
2022-12-13T14:26:59.076Z,20.17
2022-12-13T14:29:37.357Z,20.67
2022-12-13T14:32:10.613Z,18.35
2022-12-13T14:34:55.233Z,20.17
2022-12-13T14:37:30.707Z,19.27
2022-12-13T14:39:58.968Z,18.10
2022-12-13T14:42:33.939Z,17.63
2022-12-13T14:45:26.321Z,20.50
2022-12-13T14:47:54.415Z,16.38
2022-12-13T14:50:23.659Z,18.67
2022-12-13T14:52:50.629Z,19.67
2022-12-13T14:55:30.223Z,19.33
2022-12-13T14:57:59.713Z,18.73
2022-12-13T15:00:40.052Z,18.25
2022-12-13T15:03:07.304Z,18.95
2022-12-13T15:05:45.554Z,18.75
2022-12-13T15:08:17.120Z,20.05
2022-12-13T15:10:48.731Z,17.77
2022-12-13T15:13:23.591Z,19.63
2022-12-13T15:15:56.460Z,17.80
2022-12-13T15:18:25.035Z,17.02
2022-12-13T15:20:56.450Z,18.27
2022-12-13T15:23:29.739Z,12.38
2022-12-13T15:26:10.948Z,17.65
2022-12-13T15:28:43.558Z,17.80
2022-12-13T15:33:44.071Z,18.15
2022-12-13T15:36:41.472Z,18.70
2022-12-13T15:39:15.223Z,18.77
2022-12-13T15:41:49.433Z,19.15
2022-12-13T15:44:33.357Z,22.50
2022-12-13T15:47:08.496Z,20.13
2022-12-13T15:49:46.329Z,19.60
2022-12-13T15:52:15.228Z,19.98
2022-12-13T15:54:53.608Z,20.33
2022-12-13T15:57:26.647Z,20.58
2022-12-13T16:00:18.225Z,21.58
2022-12-13T16:03:14.886Z,14.93
2022-12-13T16:05:50.373Z,19.48
2022-12-13T16:08:27.499Z,19.85
2022-12-13T16:10:55.036Z,20.38
2022-12-13T16:13:29.893Z,21.15
2022-12-13T16:15:59.725Z,19.48
2022-12-13T16:18:31.965Z,19.42
2022-12-13T16:20:59.001Z,20.48
2022-12-13T16:23:27.125Z,20.90
2022-12-13T16:25:54.604Z,21.08
2022-12-13T16:28:21.528Z,18.77
2022-12-13T16:30:52.820Z,20.35
2022-12-13T16:33:26.858Z,19.85
2022-12-13T16:35:55.218Z,20.02
2022-12-13T16:38:26.626Z,19.55
2022-12-13T16:40:56.018Z,21.15
2022-12-13T16:43:32.883Z,20.08
2022-12-13T16:47:11.829Z,21.13
2022-12-13T16:48:50.758Z,19.88
2022-12-13T16:51:18.076Z,19.48
2022-12-13T16:53:44.871Z,19.58
2022-12-13T16:56:14.681Z,20.15
2022-12-13T16:58:46.064Z,19.20
2022-12-13T17:01:22.511Z,19.60
2022-12-13T17:03:49.086Z,20.38
2022-12-13T17:06:22.528Z,21.58
2022-12-13T17:08:49.106Z,19.27
2022-12-13T17:11:18.332Z,19.90
2022-12-13T17:13:47.387Z,19.77
2022-12-13T17:16:14.171Z,22.83
2022-12-13T17:18:40.999Z,20.30
2022-12-13T17:21:08.520Z,20.25
2022-12-13T17:23:35.077Z,17.85
2022-12-13T17:26:10.094Z,19.58
2022-12-13T17:28:36.914Z,18.20
2022-12-13T17:31:11.948Z,18.10
2022-12-13T17:33:39.264Z,19.10
2022-12-13T17:36:08.224Z,20.02
2022-12-13T17:38:34.852Z,19.80
2022-12-13T17:41:01.746Z,19.20
2022-12-13T17:43:34.367Z,19.40
2022-12-13T17:46:03.953Z,19.33
2022-12-13T17:48:39.327Z,19.77
2022-12-13T17:51:08.448Z,18.63
2022-12-13T17:53:35.932Z,22.75
2022-12-13T17:56:05.614Z,20.77
2022-12-13T17:58:32.331Z,19.95
2022-12-13T18:01:00.044Z,19.65
2022-12-13T18:03:26.994Z,19.38
2022-12-13T18:05:58.623Z,20.27
2022-12-13T18:08:28.207Z,20.15
2022-12-13T18:11:15.717Z,20.55
2022-12-13T18:13:43.586Z,20.05
2022-12-13T18:16:13.257Z,20.65
2022-12-13T18:18:40.317Z,20.15
2022-12-13T18:21:10.479Z,21.08
2022-12-13T18:23:37.904Z,18.58
2022-12-13T18:26:06.683Z,18.40
2022-12-13T18:28:34.237Z,19.42
2022-12-13T18:31:04.878Z,19.15
2022-12-13T18:33:31.534Z,18.50
2022-12-13T18:35:58.217Z,19.25
2022-12-13T18:38:30.449Z,19.67
2022-12-13T18:41:29.196Z,18.92
2022-12-13T18:43:59.421Z,18.55
2022-12-13T18:46:27.532Z,18.60
2022-12-13T18:48:54.204Z,19.70
2022-12-13T18:51:20.851Z,18.85
2022-12-13T18:53:47.568Z,17.60
2022-12-13T18:56:18.641Z,19.13
2022-12-13T18:58:48.260Z,19.67
2022-12-13T19:01:15.809Z,18.90
2022-12-13T19:03:45.006Z,20.10
2022-12-13T19:06:19.387Z,18.70
2022-12-13T19:08:51.283Z,17.70
2022-12-13T19:11:18.515Z,17.77
2022-12-13T19:13:45.054Z,18.30
2022-12-13T19:16:14.359Z,19.70
2022-12-13T19:18:41.438Z,18.58
2022-12-13T19:21:11.518Z,19.35
2022-12-13T19:23:40.806Z,16.95
2022-12-13T19:26:14.783Z,20.75
2022-12-13T19:28:43.172Z,18.85
2022-12-13T19:31:12.049Z,19.63
2022-12-13T19:33:40.772Z,18.40
2022-12-13T19:36:08.684Z,19.55
2022-12-13T19:38:35.129Z,19.95
2022-12-13T19:41:08.627Z,18.00
2022-12-13T19:43:35.396Z,17.67
2022-12-13T19:46:02.811Z,17.67
2022-12-13T19:48:30.052Z,17.88
2022-12-13T19:51:01.532Z,17.58
2022-12-13T19:53:29.681Z,18.52
2022-12-13T19:55:56.819Z,18.48
2022-12-13T19:58:24.115Z,18.25
2022-12-13T20:00:50.763Z,17.50
2022-12-13T20:03:17.690Z,17.73
2022-12-13T20:05:45.862Z,18.48
2022-12-13T20:08:12.511Z,20.10
2022-12-13T20:10:39.110Z,17.95
2022-12-13T20:13:05.627Z,16.02
2022-12-13T20:15:32.188Z,17.70
2022-12-13T20:17:59.384Z,16.52
2022-12-13T20:20:36.121Z,16.20
2022-12-13T20:23:14.375Z,15.55
2022-12-13T20:25:40.973Z,15.13
2022-12-13T20:28:12.658Z,16.13
2022-12-13T20:30:42.720Z,15.27
2022-12-13T20:33:09.519Z,15.88
2022-12-13T20:35:49.638Z,16.25
2022-12-13T20:38:22.755Z,15.10
2022-12-13T20:40:49.597Z,12.35
2022-12-13T20:43:16.117Z,13.95
2022-12-13T20:45:42.663Z,14.27
2022-12-13T20:48:09.220Z,12.90
2022-12-13T20:50:35.719Z,14.02
2022-12-13T20:53:02.262Z,13.82
2022-12-13T20:55:28.924Z,13.85
2022-12-13T20:57:55.399Z,13.40
2022-12-13T21:00:21.943Z,13.30
2022-12-13T21:02:48.502Z,15.10
2022-12-13T21:05:20.560Z,13.32
2022-12-13T21:08:05.983Z,14.02
2022-12-13T21:10:32.485Z,13.50
2022-12-13T21:12:59.049Z,14.63
2022-12-13T21:15:25.565Z,12.82
2022-12-13T21:17:52.139Z,13.35
2022-12-13T21:20:19.471Z,13.50
2022-12-13T21:22:46.293Z,11.98
2022-12-13T21:25:12.784Z,13.40
2022-12-13T21:27:40.028Z,11.38
2022-12-13T21:30:07.325Z,12.55
2022-12-13T21:32:33.828Z,12.85
2022-12-13T21:35:00.444Z,11.68
2022-12-13T21:37:26.997Z,12.70
2022-12-13T21:39:53.798Z,11.02
2022-12-13T21:42:20.316Z,12.85
2022-12-13T21:44:46.841Z,11.65
2022-12-13T21:47:13.797Z,11.80
2022-12-13T21:49:40.948Z,11.25
2022-12-13T21:52:07.470Z,9.63
2022-12-13T21:54:33.970Z,11.27
2022-12-13T21:57:19.102Z,10.70
2022-12-13T21:59:45.819Z,10.10
2022-12-13T22:02:16.003Z,9.68
2022-12-13T22:04:54.863Z,9.98
2022-12-13T22:07:30.115Z,9.05
2022-12-13T22:09:58.127Z,9.43
2022-12-13T22:12:33.319Z,14.55
2022-12-13T22:15:00.150Z,12.55
2022-12-13T22:17:34.707Z,15.88
2022-12-13T22:20:07.676Z,11.90
2022-12-13T22:22:34.641Z,14.55
2022-12-13T22:25:01.206Z,13.05
2022-12-13T22:27:27.751Z,10.00
2022-12-13T22:29:57.061Z,11.25
2022-12-13T22:32:25.597Z,12.07
2022-12-13T22:34:52.430Z,14.65
2022-12-13T22:37:18.988Z,11.23
2022-12-13T22:39:45.584Z,11.15
2022-12-13T22:42:12.237Z,11.00
2022-12-13T22:44:38.740Z,10.85
2022-12-13T22:47:06.569Z,11.13
2022-12-13T22:49:33.228Z,10.48
2022-12-13T22:51:59.738Z,9.82
2022-12-13T22:54:26.329Z,9.23
2022-12-13T22:56:53.345Z,9.77
2022-12-13T22:59:19.895Z,10.27
2022-12-13T23:01:47.276Z,10.73
2022-12-13T23:04:15.410Z,12.05
2022-12-13T23:06:42.355Z,11.52
2022-12-13T23:09:11.960Z,12.38
2022-12-13T23:12:16.825Z,11.50
2022-12-13T23:14:43.306Z,11.40
2022-12-13T23:17:09.879Z,12.73
2022-12-13T23:19:48.645Z,12.32
2022-12-13T23:22:20.091Z,11.70
2022-12-13T23:24:46.726Z,12.43
2022-12-13T23:27:13.317Z,12.52
2022-12-13T23:29:39.850Z,11.95
2022-12-13T23:32:06.461Z,11.73
2022-12-13T23:34:33.054Z,11.52
2022-12-13T23:36:59.532Z,11.18
2022-12-13T23:39:26.109Z,12.88
2022-12-13T23:41:52.630Z,10.55
2022-12-13T23:44:19.349Z,10.32
2022-12-13T23:46:48.380Z,9.25
2022-12-13T23:49:16.292Z,10.90
2022-12-13T23:51:42.933Z,9.77
2022-12-13T23:54:14.648Z,10.20
2022-12-13T23:56:41.339Z,9.55
2022-12-13T23:59:07.929Z,9.85
